createdAt,value
2018-05-29T00:04:45.458Z,20.90
2018-05-29T00:09:39.524Z,20.87
2018-05-29T00:14:32.806Z,20.43
2018-05-29T00:19:26.866Z,20.37
2018-05-29T00:24:20.161Z,20.64
2018-05-29T00:29:13.487Z,20.60
2018-05-29T00:34:06.766Z,20.43
2018-05-29T00:39:00.062Z,20.50
2018-05-29T00:43:53.351Z,20.41
2018-05-29T00:48:46.634Z,20.48
2018-05-29T00:53:39.954Z,20.02
2018-05-29T00:58:34.010Z,19.77
2018-05-29T01:03:28.819Z,19.89
2018-05-29T01:08:23.727Z,20.08
2018-05-29T01:13:17.195Z,20.19
2018-05-29T01:18:10.471Z,19.89
2018-05-29T01:23:03.762Z,19.81
2018-05-29T01:27:57.058Z,19.66
2018-05-29T01:32:50.335Z,19.75
2018-05-29T01:37:43.626Z,19.79
2018-05-29T01:42:37.684Z,19.66
2018-05-29T01:47:30.971Z,19.77
2018-05-29T01:52:24.299Z,19.62
2018-05-29T01:57:17.588Z,19.74
2018-05-29T02:02:10.885Z,19.82
2018-05-29T02:07:04.174Z,20.04
2018-05-29T02:11:57.468Z,20.00
2018-05-29T02:16:50.760Z,19.85
2018-05-29T02:21:44.826Z,19.69
2018-05-29T02:26:38.091Z,19.59
2018-05-29T02:31:31.396Z,19.51
2018-05-29T02:36:24.692Z,19.64
2018-05-29T02:41:18.763Z,19.74
2018-05-29T02:46:12.073Z,19.94
2018-05-29T02:51:06.125Z,19.81
2018-05-29T02:55:59.415Z,19.87
2018-05-29T03:00:52.708Z,19.98
2018-05-29T03:05:47.495Z,20.11
2018-05-29T03:10:40.810Z,19.97
2018-05-29T03:15:34.117Z,20.25
2018-05-29T03:20:27.387Z,20.28
2018-05-29T03:25:20.677Z,20.13
2018-05-29T03:30:13.961Z,20.18
2018-05-29T03:35:07.270Z,20.19
2018-05-29T03:40:01.404Z,20.24
2018-05-29T03:44:54.700Z,20.34
2018-05-29T03:49:47.981Z,20.31
2018-05-29T03:54:41.319Z,20.31
2018-05-29T03:59:35.382Z,20.38
2018-05-29T04:04:28.681Z,20.46
2018-05-29T04:09:22.783Z,20.52
2018-05-29T04:14:16.100Z,20.35
2018-05-29T04:19:09.383Z,20.41
2018-05-29T04:24:02.674Z,20.38
2018-05-29T04:28:55.999Z,20.42
2018-05-29T04:33:49.286Z,20.34
2018-05-29T04:38:42.574Z,20.31
2018-05-29T04:43:35.894Z,20.25
2018-05-29T04:48:29.180Z,20.47
2018-05-29T04:53:22.484Z,20.55
2018-05-29T04:58:15.811Z,20.56
2018-05-29T05:03:09.112Z,20.23
2018-05-29T05:08:02.426Z,20.42
2018-05-29T05:12:55.727Z,20.53
2018-05-29T05:17:49.018Z,20.72
2018-05-29T05:22:42.340Z,20.84
2018-05-29T05:27:36.406Z,20.64
2018-05-29T05:32:29.739Z,20.85
2018-05-29T05:37:23.027Z,20.79
2018-05-29T05:42:16.316Z,20.84
2018-05-29T05:47:09.620Z,20.85
2018-05-29T05:52:02.910Z,21.11
2018-05-29T05:56:56.976Z,20.92
2018-05-29T06:01:52.169Z,21.28
2018-05-29T06:06:45.484Z,21.46
2018-05-29T06:11:38.770Z,21.85
2018-05-29T06:16:32.051Z,22.19
2018-05-29T06:21:26.124Z,22.44
2018-05-29T06:26:19.566Z,22.58
2018-05-29T06:31:12.863Z,22.87
2018-05-29T06:36:06.199Z,23.24
2018-05-29T06:41:00.379Z,23.25
2018-05-29T06:45:54.510Z,23.27
2018-05-29T06:50:47.804Z,23.05
2018-05-29T06:55:41.108Z,22.99
2018-05-29T07:00:35.205Z,23.03
2018-05-29T07:05:28.524Z,23.39
2018-05-29T07:10:22.685Z,23.47
2018-05-29T07:15:15.997Z,23.61
2018-05-29T07:20:09.297Z,23.22
2018-05-29T07:25:02.584Z,23.68
2018-05-29T07:29:55.911Z,23.70
2018-05-29T07:34:50.024Z,22.99
2018-05-29T07:39:43.312Z,23.51
2018-05-29T07:44:36.596Z,23.61
2018-05-29T07:49:29.887Z,23.58
2018-05-29T07:54:23.202Z,24.11
2018-05-29T07:59:17.318Z,23.63
2018-05-29T08:04:11.420Z,23.66
2018-05-29T08:09:06.547Z,24.29
2018-05-29T08:13:59.843Z,24.35
2018-05-29T08:18:53.151Z,25.02
2018-05-29T08:23:46.564Z,25.66
2018-05-29T08:28:40.625Z,25.09
2018-05-29T08:33:34.219Z,25.96
2018-05-29T08:38:28.435Z,26.41
2018-05-29T08:43:22.531Z,25.78
2018-05-29T08:48:16.598Z,26.59
2018-05-29T08:53:09.897Z,26.49
2018-05-29T08:58:03.962Z,26.05
2018-05-29T09:02:57.262Z,26.34
2018-05-29T09:07:50.647Z,25.61
2018-05-29T09:12:43.947Z,25.87
2018-05-29T09:17:37.223Z,25.76
2018-05-29T09:22:30.531Z,25.14
2018-05-29T09:27:23.835Z,25.91
2018-05-29T09:32:17.142Z,25.50
2018-05-29T09:37:11.236Z,25.44
2018-05-29T09:42:05.305Z,25.54
2018-05-29T09:46:58.609Z,26.92
2018-05-29T09:51:52.701Z,27.50
2018-05-29T09:56:46.757Z,26.96
2018-05-29T10:01:40.069Z,26.40
2018-05-29T10:06:34.146Z,27.21
2018-05-29T10:11:27.438Z,28.55
2018-05-29T10:16:20.738Z,28.30
2018-05-29T10:21:14.055Z,27.62
2018-05-29T10:26:07.380Z,27.16
2018-05-29T10:31:00.756Z,26.72
2018-05-29T10:35:54.020Z,26.73
2018-05-29T10:40:48.926Z,26.53
2018-05-29T10:45:42.281Z,26.95
2018-05-29T10:50:35.589Z,27.07
2018-05-29T10:55:28.906Z,27.63
2018-05-29T11:00:22.183Z,27.77
2018-05-29T11:05:16.255Z,28.29
2018-05-29T11:10:10.323Z,27.67
2018-05-29T11:15:03.591Z,26.33
2018-05-29T11:19:56.912Z,26.06
2018-05-29T11:24:50.337Z,26.62
2018-05-29T11:29:43.651Z,26.60
2018-05-29T11:34:38.455Z,26.69
2018-05-29T11:39:31.757Z,26.32
2018-05-29T11:44:26.732Z,26.88
2018-05-29T11:49:20.060Z,27.11
2018-05-29T11:54:13.479Z,26.57
2018-05-29T11:59:06.802Z,26.55
2018-05-29T12:04:00.887Z,26.53
2018-05-29T12:08:54.213Z,26.13
2018-05-29T12:13:47.513Z,27.16
2018-05-29T12:18:40.792Z,27.18
2018-05-29T12:23:34.083Z,27.94
2018-05-29T12:28:27.374Z,26.92
2018-05-29T12:33:21.445Z,26.33
2018-05-29T12:38:17.241Z,26.84
2018-05-29T12:43:10.683Z,27.08
2018-05-29T12:48:04.928Z,26.13
2018-05-29T12:52:58.229Z,25.72
2018-05-29T12:57:51.558Z,25.96
2018-05-29T13:02:45.658Z,25.95
2018-05-29T13:07:38.976Z,26.43
2018-05-29T13:12:32.277Z,26.44
2018-05-29T13:17:25.650Z,26.18
2018-05-29T13:22:18.956Z,26.04
2018-05-29T13:27:12.357Z,26.12
2018-05-29T13:32:05.668Z,25.59
2018-05-29T13:36:58.987Z,25.63
2018-05-29T13:41:53.068Z,26.08
2018-05-29T13:46:47.169Z,26.62
2018-05-29T13:51:41.275Z,26.77
2018-05-29T13:56:35.369Z,27.24
2018-05-29T14:01:29.402Z,27.08
2018-05-29T14:06:23.267Z,26.86
2018-05-29T14:11:16.604Z,27.28
2018-05-29T14:16:10.084Z,27.46
2018-05-29T14:21:03.416Z,27.48
2018-05-29T14:25:56.728Z,27.72
2018-05-29T14:30:50.026Z,27.87
2018-05-29T14:35:44.169Z,27.82
2018-05-29T14:40:37.460Z,27.90
2018-05-29T14:45:30.779Z,27.54
2018-05-29T14:50:24.866Z,27.34
2018-05-29T14:55:18.192Z,27.58
2018-05-29T15:00:11.500Z,27.41
2018-05-29T15:05:04.905Z,27.01
2018-05-29T15:09:58.984Z,26.99
2018-05-29T15:14:52.288Z,27.00
2018-05-29T15:19:45.626Z,27.13
2018-05-29T15:24:39.036Z,26.86
2018-05-29T15:29:32.304Z,26.29
2018-05-29T15:34:25.616Z,26.66
2018-05-29T15:39:19.687Z,26.82
2018-05-29T15:44:12.990Z,26.93
2018-05-29T15:49:06.304Z,26.79
2018-05-29T15:53:59.590Z,27.05
2018-05-29T15:58:52.884Z,27.24
2018-05-29T16:03:46.792Z,27.03
2018-05-29T16:08:40.871Z,26.95
2018-05-29T16:13:34.171Z,26.63
2018-05-29T16:18:28.246Z,26.36
2018-05-29T16:23:21.559Z,26.18
2018-05-29T16:28:14.910Z,26.23
2018-05-29T16:33:08.190Z,26.10
2018-05-29T16:38:02.250Z,25.97
2018-05-29T16:42:55.575Z,25.92
2018-05-29T16:47:49.747Z,26.12
2018-05-29T16:52:43.080Z,26.00
2018-05-29T16:57:36.974Z,26.09
2018-05-29T17:02:30.266Z,26.02
2018-05-29T17:07:24.285Z,25.84
2018-05-29T17:12:17.583Z,25.82
2018-05-29T17:17:10.899Z,25.73
2018-05-29T17:22:04.192Z,25.71
2018-05-29T17:26:58.284Z,25.31
2018-05-29T17:31:51.599Z,25.35
2018-05-29T17:36:44.895Z,25.26
2018-05-29T17:41:38.209Z,25.26
2018-05-29T17:46:32.251Z,25.26
2018-05-29T17:51:25.761Z,25.34
2018-05-29T17:56:19.407Z,25.20
2018-05-29T18:01:13.742Z,25.08
2018-05-29T18:06:07.243Z,24.90
2018-05-29T18:11:00.565Z,24.67
2018-05-29T18:15:54.068Z,24.54
2018-05-29T18:20:47.445Z,24.38
2018-05-29T18:25:40.851Z,24.18
2018-05-29T18:30:34.211Z,24.23
2018-05-29T18:35:27.565Z,23.91
2018-05-29T18:40:21.637Z,23.83
2018-05-29T18:45:14.969Z,23.62
2018-05-29T18:50:08.314Z,23.56
2018-05-29T18:55:01.593Z,23.37
2018-05-29T18:59:54.938Z,23.28
2018-05-29T19:04:48.235Z,23.04
2018-05-29T19:09:42.492Z,22.87
2018-05-29T19:14:35.783Z,22.87
2018-05-29T19:19:29.075Z,22.71
2018-05-29T19:24:22.384Z,22.52
2018-05-29T19:29:16.440Z,22.40
2018-05-29T19:34:09.742Z,22.38
2018-05-29T19:39:03.046Z,22.26
2018-05-29T19:43:56.355Z,22.33
2018-05-29T19:48:49.677Z,22.18
2018-05-29T19:53:42.988Z,22.09
2018-05-29T19:58:36.280Z,21.99
2018-05-29T20:03:30.493Z,21.95
2018-05-29T20:08:23.813Z,21.80
2018-05-29T20:13:17.137Z,21.75
2018-05-29T20:18:10.422Z,21.69
2018-05-29T20:23:03.712Z,21.33
2018-05-29T20:27:57.020Z,21.03
2018-05-29T20:32:50.361Z,21.14
2018-05-29T20:37:43.651Z,21.36
2018-05-29T20:42:40.184Z,21.35
2018-05-29T20:47:34.410Z,21.07
2018-05-29T20:52:27.714Z,20.76
2018-05-29T20:57:30.395Z,20.96
2018-05-29T21:02:24.627Z,20.86
2018-05-29T21:12:25.834Z,20.89
2018-05-29T21:17:19.120Z,20.89
2018-05-29T21:22:12.489Z,20.81
2018-05-29T21:27:05.784Z,20.54
2018-05-29T21:31:59.128Z,20.63
2018-05-29T21:36:53.211Z,20.77
2018-05-29T21:41:47.275Z,20.65
2018-05-29T21:46:40.592Z,20.61
2018-05-29T21:51:34.655Z,20.54
2018-05-29T21:56:27.967Z,20.50
2018-05-29T22:01:22.655Z,20.19
2018-05-29T22:06:15.963Z,20.07
2018-05-29T22:11:09.261Z,20.11
2018-05-29T22:16:02.663Z,20.11
2018-05-29T22:20:56.028Z,20.00
2018-05-29T22:25:49.490Z,19.95
2018-05-29T22:30:42.823Z,19.52
2018-05-29T22:35:36.121Z,19.82
2018-05-29T22:40:30.232Z,19.94
2018-05-29T22:45:23.496Z,19.86
2018-05-29T22:55:10.147Z,19.60
2018-05-29T23:00:04.259Z,19.52
2018-05-29T23:04:58.311Z,19.35
2018-05-29T23:09:51.620Z,19.43
2018-05-29T23:14:45.692Z,19.52
2018-05-29T23:19:39.005Z,19.28
2018-05-29T23:24:32.301Z,19.27
2018-05-29T23:29:25.608Z,19.26
2018-05-29T23:34:18.960Z,19.17
2018-05-29T23:39:12.503Z,19.30
2018-05-29T23:44:06.568Z,19.20
2018-05-29T23:48:59.872Z,18.72
2018-05-29T23:53:53.997Z,18.69
2018-05-29T23:58:47.309Z,18.59
